Startpagina
METAR-TAF:

METAR-TAF

Vliegvelden :

José Martí International Airport

Havana, Cuba

breedte: 22-59N, lengte: 082-24W, hoogte: 59 m

Actueel weer

Dit bericht is 32 minuten geleden gemaakt, om 21:13 UTC
Wind 11 kt uit het oostnoordoosten, variërend tussen het noordnoordoosten en het oosten
Temperatuur 31°C
Vochtigheid 71%
Druk 1017 hPa
Zicht: 9000 m
Weinig wolken op 2500 ft, Cumulonimbus.

METAR: MUHA 172113Z 06011KT 020V080 9000 FEW025CB 31/25 Q1017 RMK CB AT III QUAD

Tijdstip: 17:45 (21:45 UTC)

Verwachting

Dit bericht is 4 uur en het 45 minuten geleden gemaakt, om 17:00 UTC
Verwachting geldig van 17 om 18 UTC tot 18 om 18 UTC
Wind 6 kt uit het oosten
Zicht: 9000 m
Weinig wolken op 3000 ft
Gebroken wolken op 18000 ft

TAF: MUHA 171700Z 1718/1818 09006KT 9000 FEW030 BKN180

Waarnemingen en weersverwachtingen van meer dan 4000 vliegvelden (METAR en TAF).

De beschikbare stations zijn de gele en rode punten op de kaart.

Ga met uw muis naar het station om de naam te zien.

Klik dan om waarnemingen en weersverwachtingen te zien.

kaart wijzigen: klik op de groene knoppen met een zwart kruis om in te zoomen, op de groene knop met een streepje om uit te zoomen of op de groene pijlen voor aangrenzende kaarten.


METAR-TAF: